sensor_id;sensor_type;location;lat;lon;timestamp;P1;durP1;ratioP1;P2;durP2;ratioP2
45392;SDS011;31129;44.810;10.334;2022-11-25T00:02:25;31.83;;;17.98;;
45392;SDS011;31129;44.810;10.334;2022-11-25T00:04:50;32.60;;;16.98;;
45392;SDS011;31129;44.810;10.334;2022-11-25T00:07:16;28.48;;;17.25;;
45392;SDS011;31129;44.810;10.334;2022-11-25T00:09:41;33.92;;;17.13;;
45392;SDS011;31129;44.810;10.334;2022-11-25T00:12:06;25.85;;;17.05;;
45392;SDS011;31129;44.810;10.334;2022-11-25T00:14:32;24.73;;;15.52;;
45392;SDS011;31129;44.810;10.334;2022-11-25T00:16:58;32.35;;;16.67;;
45392;SDS011;31129;44.810;10.334;2022-11-25T00:19:23;32.10;;;17.08;;
45392;SDS011;31129;44.810;10.334;2022-11-25T00:21:48;30.73;;;17.30;;
45392;SDS011;31129;44.810;10.334;2022-11-25T00:24:14;40.92;;;17.38;;
45392;SDS011;31129;44.810;10.334;2022-11-25T00:26:41;29.77;;;17.88;;
45392;SDS011;31129;44.810;10.334;2022-11-25T00:29:08;23.98;;;16.95;;
45392;SDS011;31129;44.810;10.334;2022-11-25T00:31:38;35.30;;;19.08;;
45392;SDS011;31129;44.810;10.334;2022-11-25T00:34:05;30.85;;;19.60;;
45392;SDS011;31129;44.810;10.334;2022-11-25T00:36:33;30.48;;;18.05;;
45392;SDS011;31129;44.810;10.334;2022-11-25T00:39:04;30.00;;;17.15;;
45392;SDS011;31129;44.810;10.334;2022-11-25T00:41:32;35.80;;;17.83;;
45392;SDS011;31129;44.810;10.334;2022-11-25T00:44:17;28.75;;;16.85;;
45392;SDS011;31129;44.810;10.334;2022-11-25T00:49:27;29.98;;;16.73;;
45392;SDS011;31129;44.810;10.334;2022-11-25T00:51:53;29.88;;;17.17;;
45392;SDS011;31129;44.810;10.334;2022-11-25T00:54:19;29.70;;;18.02;;
45392;SDS011;31129;44.810;10.334;2022-11-25T00:56:45;34.63;;;18.88;;
45392;SDS011;31129;44.810;10.334;2022-11-25T00:59:10;28.92;;;17.63;;
45392;SDS011;31129;44.810;10.334;2022-11-25T01:01:36;33.00;;;18.25;;
45392;SDS011;31129;44.810;10.334;2022-11-25T01:04:06;33.25;;;19.10;;
45392;SDS011;31129;44.810;10.334;2022-11-25T01:06:32;33.33;;;17.98;;
45392;SDS011;31129;44.810;10.334;2022-11-25T01:08:59;29.63;;;17.88;;
45392;SDS011;31129;44.810;10.334;2022-11-25T01:11:25;29.27;;;15.98;;
45392;SDS011;31129;44.810;10.334;2022-11-25T01:13:51;28.67;;;17.00;;
45392;SDS011;31129;44.810;10.334;2022-11-25T01:16:20;35.72;;;16.13;;
45392;SDS011;31129;44.810;10.334;2022-11-25T01:18:46;27.75;;;15.98;;
45392;SDS011;31129;44.810;10.334;2022-11-25T01:21:13;26.25;;;14.73;;
45392;SDS011;31129;44.810;10.334;2022-11-25T01:23:40;31.77;;;16.85;;
45392;SDS011;31129;44.810;10.334;2022-11-25T01:26:07;26.98;;;14.75;;
45392;SDS011;31129;44.810;10.334;2022-11-25T01:28:35;28.67;;;15.13;;
45392;SDS011;31129;44.810;10.334;2022-11-25T01:31:01;24.02;;;14.82;;
45392;SDS011;31129;44.810;10.334;2022-11-25T01:33:29;24.80;;;13.63;;
45392;SDS011;31129;44.810;10.334;2022-11-25T01:35:59;28.55;;;14.63;;
45392;SDS011;31129;44.810;10.334;2022-11-25T01:38:29;28.50;;;14.50;;
45392;SDS011;31129;44.810;10.334;2022-11-25T01:40:55;32.17;;;15.80;;
45392;SDS011;31129;44.810;10.334;2022-11-25T01:43:21;27.75;;;13.60;;
45392;SDS011;31129;44.810;10.334;2022-11-25T01:45:48;23.25;;;13.38;;
45392;SDS011;31129;44.810;10.334;2022-11-25T01:48:15;24.55;;;13.65;;
45392;SDS011;31129;44.810;10.334;2022-11-25T01:50:52;22.98;;;13.55;;
45392;SDS011;31129;44.810;10.334;2022-11-25T01:53:19;22.80;;;13.23;;
45392;SDS011;31129;44.810;10.334;2022-11-25T01:55:57;31.20;;;14.30;;
45392;SDS011;31129;44.810;10.334;2022-11-25T01:58:27;28.15;;;14.43;;
45392;SDS011;31129;44.810;10.334;2022-11-25T02:00:56;22.00;;;13.63;;
45392;SDS011;31129;44.810;10.334;2022-11-25T02:03:27;26.00;;;13.10;;
45392;SDS011;31129;44.810;10.334;2022-11-25T02:06:07;22.90;;;12.50;;
45392;SDS011;31129;44.810;10.334;2022-11-25T02:08:37;28.05;;;13.13;;
45392;SDS011;31129;44.810;10.334;2022-11-25T02:11:04;23.98;;;13.10;;
45392;SDS011;31129;44.810;10.334;2022-11-25T02:13:30;24.85;;;12.43;;
45392;SDS011;31129;44.810;10.334;2022-11-25T02:15:58;23.02;;;11.90;;
45392;SDS011;31129;44.810;10.334;2022-11-25T02:18:25;21.83;;;12.32;;
45392;SDS011;31129;44.810;10.334;2022-11-25T02:20:51;20.77;;;11.95;;
45392;SDS011;31129;44.810;10.334;2022-11-25T02:23:29;19.38;;;11.88;;
45392;SDS011;31129;44.810;10.334;2022-11-25T02:26:02;23.08;;;12.68;;
45392;SDS011;31129;44.810;10.334;2022-11-25T02:28:29;21.50;;;12.30;;
45392;SDS011;31129;44.810;10.334;2022-11-25T02:30:56;14.63;;;7.82;;
45392;SDS011;31129;44.810;10.334;2022-11-25T02:33:22;19.75;;;11.88;;
45392;SDS011;31129;44.810;10.334;2022-11-25T02:35:49;19.67;;;11.55;;
45392;SDS011;31129;44.810;10.334;2022-11-25T02:38:20;20.38;;;10.90;;
45392;SDS011;31129;44.810;10.334;2022-11-25T02:40:51;26.35;;;13.00;;
45392;SDS011;31129;44.810;10.334;2022-11-25T02:43:25;24.17;;;13.45;;
45392;SDS011;31129;44.810;10.334;2022-11-25T02:45:58;25.15;;;14.05;;
45392;SDS011;31129;44.810;10.334;2022-11-25T02:48:26;24.67;;;14.07;;
45392;SDS011;31129;44.810;10.334;2022-11-25T02:50:54;27.10;;;15.20;;
45392;SDS011;31129;44.810;10.334;2022-11-25T02:53:22;26.90;;;15.38;;
45392;SDS011;31129;44.810;10.334;2022-11-25T02:55:49;30.70;;;16.33;;
45392;SDS011;31129;44.810;10.334;2022-11-25T02:58:15;24.50;;;15.88;;
45392;SDS011;31129;44.810;10.334;2022-11-25T03:00:41;28.00;;;15.73;;
45392;SDS011;31129;44.810;10.334;2022-11-25T03:03:07;30.45;;;15.93;;
45392;SDS011;31129;44.810;10.334;2022-11-25T03:05:34;29.85;;;15.60;;
45392;SDS011;31129;44.810;10.334;2022-11-25T03:08:00;25.40;;;15.88;;
45392;SDS011;31129;44.810;10.334;2022-11-25T03:10:28;28.83;;;15.63;;
45392;SDS011;31129;44.810;10.334;2022-11-25T03:12:57;29.33;;;16.45;;
45392;SDS011;31129;44.810;10.334;2022-11-25T03:17:49;28.08;;;14.48;;
45392;SDS011;31129;44.810;10.334;2022-11-25T03:20:14;33.75;;;15.77;;
45392;SDS011;31129;44.810;10.334;2022-11-25T03:22:41;29.45;;;18.33;;
45392;SDS011;31129;44.810;10.334;2022-11-25T03:25:07;33.33;;;15.93;;
45392;SDS011;31129;44.810;10.334;2022-11-25T03:27:33;25.73;;;14.52;;
45392;SDS011;31129;44.810;10.334;2022-11-25T03:30:00;23.67;;;15.68;;
45392;SDS011;31129;44.810;10.334;2022-11-25T03:34:54;26.55;;;14.18;;
45392;SDS011;31129;44.810;10.334;2022-11-25T03:37:20;22.65;;;13.93;;
45392;SDS011;31129;44.810;10.334;2022-11-25T03:39:46;25.35;;;13.57;;
45392;SDS011;31129;44.810;10.334;2022-11-25T03:42:12;18.98;;;12.07;;
45392;SDS011;31129;44.810;10.334;2022-11-25T03:44:38;22.70;;;12.68;;
45392;SDS011;31129;44.810;10.334;2022-11-25T03:47:03;27.45;;;13.38;;
45392;SDS011;31129;44.810;10.334;2022-11-25T03:49:30;23.38;;;14.32;;
45392;SDS011;31129;44.810;10.334;2022-11-25T03:51:56;20.67;;;14.25;;
45392;SDS011;31129;44.810;10.334;2022-11-25T03:54:22;26.63;;;13.73;;
45392;SDS011;31129;44.810;10.334;2022-11-25T03:57:09;23.70;;;13.43;;
45392;SDS011;31129;44.810;10.334;2022-11-25T03:59:35;23.85;;;14.82;;
45392;SDS011;31129;44.810;10.334;2022-11-25T04:02:01;21.20;;;13.88;;
45392;SDS011;31129;44.810;10.334;2022-11-25T04:04:29;22.23;;;14.38;;
45392;SDS011;31129;44.810;10.334;2022-11-25T04:06:55;21.80;;;14.23;;
45392;SDS011;31129;44.810;10.334;2022-11-25T04:09:21;23.77;;;12.95;;
45392;SDS011;31129;44.810;10.334;2022-11-25T04:11:47;27.55;;;13.27;;
45392;SDS011;31129;44.810;10.334;2022-11-25T04:14:42;22.75;;;13.35;;
45392;SDS011;31129;44.810;10.334;2022-11-25T04:17:07;20.48;;;12.63;;
45392;SDS011;31129;44.810;10.334;2022-11-25T04:19:34;21.58;;;12.50;;
45392;SDS011;31129;44.810;10.334;2022-11-25T04:22:00;16.13;;;11.38;;
45392;SDS011;31129;44.810;10.334;2022-11-25T04:24:29;23.00;;;12.43;;
45392;SDS011;31129;44.810;10.334;2022-11-25T04:26:54;23.15;;;12.77;;
45392;SDS011;31129;44.810;10.334;2022-11-25T04:29:23;25.20;;;12.88;;
45392;SDS011;31129;44.810;10.334;2022-11-25T04:31:48;20.23;;;12.88;;
45392;SDS011;31129;44.810;10.334;2022-11-25T04:34:14;22.88;;;13.73;;
45392;SDS011;31129;44.810;10.334;2022-11-25T04:36:39;24.25;;;13.95;;
45392;SDS011;31129;44.810;10.334;2022-11-25T04:39:05;23.58;;;13.05;;
45392;SDS011;31129;44.810;10.334;2022-11-25T04:41:32;22.45;;;13.02;;
45392;SDS011;31129;44.810;10.334;2022-11-25T04:43:59;22.95;;;13.32;;
45392;SDS011;31129;44.810;10.334;2022-11-25T04:46:27;22.52;;;12.60;;
45392;SDS011;31129;44.810;10.334;2022-11-25T04:48:57;19.63;;;11.77;;
45392;SDS011;31129;44.810;10.334;2022-11-25T04:51:23;19.95;;;12.32;;
45392;SDS011;31129;44.810;10.334;2022-11-25T04:53:54;21.50;;;11.85;;
45392;SDS011;31129;44.810;10.334;2022-11-25T04:56:21;21.48;;;12.32;;
45392;SDS011;31129;44.810;10.334;2022-11-25T04:58:50;17.42;;;11.32;;
45392;SDS011;31129;44.810;10.334;2022-11-25T05:01:39;21.55;;;11.48;;
45392;SDS011;31129;44.810;10.334;2022-11-25T05:04:17;25.63;;;11.88;;
45392;SDS011;31129;44.810;10.334;2022-11-25T05:06:42;24.00;;;11.05;;
45392;SDS011;31129;44.810;10.334;2022-11-25T05:09:08;17.45;;;11.40;;
45392;SDS011;31129;44.810;10.334;2022-11-25T05:11:36;19.23;;;11.80;;
45392;SDS011;31129;44.810;10.334;2022-11-25T05:14:04;21.95;;;12.48;;
45392;SDS011;31129;44.810;10.334;2022-11-25T05:16:30;19.05;;;12.25;;
45392;SDS011;31129;44.810;10.334;2022-11-25T05:18:57;30.38;;;12.20;;
45392;SDS011;31129;44.810;10.334;2022-11-25T05:21:24;21.17;;;12.00;;
45392;SDS011;31129;44.810;10.334;2022-11-25T05:23:50;23.70;;;12.60;;
45392;SDS011;31129;44.810;10.334;2022-11-25T05:26:16;19.98;;;12.27;;
45392;SDS011;31129;44.810;10.334;2022-11-25T05:28:46;22.13;;;12.43;;
45392;SDS011;31129;44.810;10.334;2022-11-25T05:31:12;22.40;;;12.15;;
45392;SDS011;31129;44.810;10.334;2022-11-25T05:33:38;23.95;;;13.27;;
45392;SDS011;31129;44.810;10.334;2022-11-25T05:36:05;18.95;;;12.18;;
45392;SDS011;31129;44.810;10.334;2022-11-25T05:38:43;17.08;;;10.82;;
45392;SDS011;31129;44.810;10.334;2022-11-25T05:41:12;19.00;;;10.90;;
45392;SDS011;31129;44.810;10.334;2022-11-25T05:43:39;21.33;;;10.75;;
45392;SDS011;31129;44.810;10.334;2022-11-25T05:46:05;19.63;;;10.43;;
45392;SDS011;31129;44.810;10.334;2022-11-25T05:48:33;23.38;;;11.32;;
45392;SDS011;31129;44.810;10.334;2022-11-25T05:51:02;15.98;;;9.80;;
45392;SDS011;31129;44.810;10.334;2022-11-25T05:53:29;17.05;;;9.38;;
45392;SDS011;31129;44.810;10.334;2022-11-25T05:55:57;18.95;;;10.20;;
45392;SDS011;31129;44.810;10.334;2022-11-25T05:58:43;18.00;;;9.40;;
45392;SDS011;31129;44.810;10.334;2022-11-25T06:01:10;15.27;;;9.70;;
45392;SDS011;31129;44.810;10.334;2022-11-25T06:03:37;17.77;;;9.80;;
45392;SDS011;31129;44.810;10.334;2022-11-25T06:06:03;18.70;;;9.77;;
45392;SDS011;31129;44.810;10.334;2022-11-25T06:08:30;17.08;;;9.18;;
45392;SDS011;31129;44.810;10.334;2022-11-25T06:10:56;19.50;;;9.82;;
45392;SDS011;31129;44.810;10.334;2022-11-25T06:13:22;18.33;;;9.35;;
45392;SDS011;31129;44.810;10.334;2022-11-25T06:15:47;17.75;;;10.02;;
45392;SDS011;31129;44.810;10.334;2022-11-25T06:18:16;19.27;;;10.05;;
45392;SDS011;31129;44.810;10.334;2022-11-25T06:20:42;17.50;;;10.15;;
45392;SDS011;31129;44.810;10.334;2022-11-25T06:23:08;20.30;;;10.63;;
45392;SDS011;31129;44.810;10.334;2022-11-25T06:25:35;16.65;;;9.75;;
45392;SDS011;31129;44.810;10.334;2022-11-25T06:28:01;22.30;;;10.15;;
45392;SDS011;31129;44.810;10.334;2022-11-25T06:30:28;22.42;;;9.57;;
45392;SDS011;31129;44.810;10.334;2022-11-25T06:33:07;16.83;;;10.68;;
45392;SDS011;31129;44.810;10.334;2022-11-25T06:35:32;17.88;;;10.88;;
45392;SDS011;31129;44.810;10.334;2022-11-25T06:38:01;18.17;;;10.25;;
45392;SDS011;31129;44.810;10.334;2022-11-25T06:40:27;20.38;;;10.93;;
45392;SDS011;31129;44.810;10.334;2022-11-25T06:42:52;20.40;;;10.98;;
45392;SDS011;31129;44.810;10.334;2022-11-25T06:45:18;19.75;;;11.27;;
45392;SDS011;31129;44.810;10.334;2022-11-25T06:47:43;18.77;;;11.23;;
45392;SDS011;31129;44.810;10.334;2022-11-25T06:50:12;20.40;;;11.13;;
45392;SDS011;31129;44.810;10.334;2022-11-25T06:52:37;16.20;;;10.18;;
45392;SDS011;31129;44.810;10.334;2022-11-25T06:55:03;25.30;;;12.15;;
45392;SDS011;31129;44.810;10.334;2022-11-25T06:57:28;28.00;;;13.27;;
45392;SDS011;31129;44.810;10.334;2022-11-25T06:59:54;23.27;;;13.02;;
45392;SDS011;31129;44.810;10.334;2022-11-25T07:02:20;30.70;;;14.55;;
45392;SDS011;31129;44.810;10.334;2022-11-25T07:04:45;29.95;;;14.98;;
45392;SDS011;31129;44.810;10.334;2022-11-25T07:07:11;29.45;;;15.45;;
45392;SDS011;31129;44.810;10.334;2022-11-25T07:09:36;25.63;;;16.23;;
45392;SDS011;31129;44.810;10.334;2022-11-25T07:12:02;31.13;;;18.65;;
45392;SDS011;31129;44.810;10.334;2022-11-25T07:14:29;27.98;;;17.00;;
45392;SDS011;31129;44.810;10.334;2022-11-25T07:16:55;25.10;;;16.35;;
45392;SDS011;31129;44.810;10.334;2022-11-25T07:19:21;30.08;;;17.08;;
45392;SDS011;31129;44.810;10.334;2022-11-25T07:21:47;27.65;;;15.93;;
45392;SDS011;31129;44.810;10.334;2022-11-25T07:24:13;25.23;;;16.95;;
45392;SDS011;31129;44.810;10.334;2022-11-25T07:26:41;31.85;;;15.82;;
45392;SDS011;31129;44.810;10.334;2022-11-25T07:29:08;28.63;;;16.45;;
45392;SDS011;31129;44.810;10.334;2022-11-25T07:31:37;26.83;;;17.38;;
45392;SDS011;31129;44.810;10.334;2022-11-25T07:34:06;38.28;;;18.85;;
45392;SDS011;31129;44.810;10.334;2022-11-25T07:36:35;30.55;;;19.90;;
45392;SDS011;31129;44.810;10.334;2022-11-25T07:39:05;35.85;;;19.88;;
45392;SDS011;31129;44.810;10.334;2022-11-25T07:41:36;32.20;;;19.98;;
45392;SDS011;31129;44.810;10.334;2022-11-25T07:44:02;35.25;;;21.02;;
45392;SDS011;31129;44.810;10.334;2022-11-25T07:46:40;36.38;;;22.38;;
45392;SDS011;31129;44.810;10.334;2022-11-25T07:49:09;41.95;;;24.70;;
45392;SDS011;31129;44.810;10.334;2022-11-25T07:51:40;39.63;;;24.52;;
45392;SDS011;31129;44.810;10.334;2022-11-25T07:54:08;41.08;;;24.55;;
45392;SDS011;31129;44.810;10.334;2022-11-25T07:56:35;45.33;;;26.15;;
45392;SDS011;31129;44.810;10.334;2022-11-25T07:59:02;38.67;;;24.50;;
45392;SDS011;31129;44.810;10.334;2022-11-25T08:01:29;38.05;;;21.77;;
45392;SDS011;31129;44.810;10.334;2022-11-25T08:03:54;36.13;;;23.42;;
45392;SDS011;31129;44.810;10.334;2022-11-25T08:06:21;43.05;;;23.58;;
45392;SDS011;31129;44.810;10.334;2022-11-25T08:11:18;36.17;;;22.85;;
45392;SDS011;31129;44.810;10.334;2022-11-25T08:13:45;46.80;;;25.67;;
45392;SDS011;31129;44.810;10.334;2022-11-25T08:16:12;46.50;;;26.42;;
45392;SDS011;31129;44.810;10.334;2022-11-25T08:18:39;48.43;;;26.93;;
45392;SDS011;31129;44.810;10.334;2022-11-25T08:21:06;40.97;;;26.42;;
45392;SDS011;31129;44.810;10.334;2022-11-25T08:23:34;51.63;;;27.55;;
45392;SDS011;31129;44.810;10.334;2022-11-25T08:26:02;51.95;;;26.20;;
45392;SDS011;31129;44.810;10.334;2022-11-25T08:28:38;42.22;;;27.38;;
45392;SDS011;31129;44.810;10.334;2022-11-25T08:31:06;53.17;;;28.88;;
45392;SDS011;31129;44.810;10.334;2022-11-25T08:33:33;49.97;;;27.95;;
45392;SDS011;31129;44.810;10.334;2022-11-25T08:38:28;50.67;;;29.38;;
45392;SDS011;31129;44.810;10.334;2022-11-25T08:40:54;56.78;;;29.67;;
45392;SDS011;31129;44.810;10.334;2022-11-25T08:43:20;47.00;;;28.52;;
45392;SDS011;31129;44.810;10.334;2022-11-25T08:45:46;52.53;;;27.42;;
45392;SDS011;31129;44.810;10.334;2022-11-25T08:48:16;49.33;;;28.30;;
45392;SDS011;31129;44.810;10.334;2022-11-25T08:50:50;42.67;;;29.45;;
45392;SDS011;31129;44.810;10.334;2022-11-25T08:53:17;46.05;;;26.40;;
45392;SDS011;31129;44.810;10.334;2022-11-25T08:55:43;48.03;;;26.70;;
45392;SDS011;31129;44.810;10.334;2022-11-25T08:58:09;51.13;;;25.90;;
45392;SDS011;31129;44.810;10.334;2022-11-25T09:00:37;36.40;;;24.33;;
45392;SDS011;31129;44.810;10.334;2022-11-25T09:03:04;49.03;;;24.53;;
45392;SDS011;31129;44.810;10.334;2022-11-25T09:05:30;40.40;;;24.35;;
45392;SDS011;31129;44.810;10.334;2022-11-25T09:08:03;36.42;;;24.63;;
45392;SDS011;31129;44.810;10.334;2022-11-25T09:10:30;45.50;;;24.67;;
45392;SDS011;31129;44.810;10.334;2022-11-25T09:12:56;42.72;;;25.58;;
45392;SDS011;31129;44.810;10.334;2022-11-25T09:15:22;43.53;;;23.95;;
45392;SDS011;31129;44.810;10.334;2022-11-25T09:17:47;45.92;;;26.23;;
45392;SDS011;31129;44.810;10.334;2022-11-25T09:20:13;41.58;;;26.10;;
45392;SDS011;31129;44.810;10.334;2022-11-25T09:22:38;47.30;;;26.83;;
45392;SDS011;31129;44.810;10.334;2022-11-25T09:25:04;41.90;;;26.42;;
45392;SDS011;31129;44.810;10.334;2022-11-25T09:27:30;55.47;;;28.48;;
45392;SDS011;31129;44.810;10.334;2022-11-25T09:29:56;43.67;;;26.75;;
45392;SDS011;31129;44.810;10.334;2022-11-25T09:32:21;44.50;;;27.20;;
45392;SDS011;31129;44.810;10.334;2022-11-25T09:34:47;44.42;;;27.40;;
45392;SDS011;31129;44.810;10.334;2022-11-25T09:37:13;45.97;;;27.40;;
45392;SDS011;31129;44.810;10.334;2022-11-25T09:39:38;44.35;;;26.40;;
45392;SDS011;31129;44.810;10.334;2022-11-25T09:45:19;44.55;;;26.63;;
45392;SDS011;31129;44.810;10.334;2022-11-25T09:56:03;46.72;;;26.27;;
45392;SDS011;31129;44.810;10.334;2022-11-25T09:58:57;40.58;;;27.00;;
45392;SDS011;31129;44.810;10.334;2022-11-25T10:01:27;43.30;;;26.75;;
45392;SDS011;31129;44.810;10.334;2022-11-25T10:04:04;46.15;;;26.55;;
45392;SDS011;31129;44.810;10.334;2022-11-25T10:06:44;40.35;;;24.88;;
45392;SDS011;31129;44.810;10.334;2022-11-25T10:09:20;45.88;;;25.25;;
45392;SDS011;31129;44.810;10.334;2022-11-25T10:11:53;46.33;;;28.23;;
45392;SDS011;31129;44.810;10.334;2022-11-25T10:14:31;36.67;;;24.25;;
45392;SDS011;31129;44.810;10.334;2022-11-25T10:17:06;39.85;;;25.92;;
45392;SDS011;31129;44.810;10.334;2022-11-25T10:22:29;41.40;;;26.98;;
45392;SDS011;31129;44.810;10.334;2022-11-25T10:25:01;45.45;;;29.20;;
45392;SDS011;31129;44.810;10.334;2022-11-25T10:27:51;46.42;;;31.35;;
45392;SDS011;31129;44.810;10.334;2022-11-25T10:30:23;47.33;;;29.13;;
45392;SDS011;31129;44.810;10.334;2022-11-25T10:32:53;44.42;;;29.10;;
45392;SDS011;31129;44.810;10.334;2022-11-25T10:35:30;47.20;;;30.95;;
45392;SDS011;31129;44.810;10.334;2022-11-25T10:38:00;46.97;;;30.08;;
45392;SDS011;31129;44.810;10.334;2022-11-25T10:40:27;41.70;;;30.08;;
45392;SDS011;31129;44.810;10.334;2022-11-25T10:42:53;43.58;;;31.67;;
45392;SDS011;31129;44.810;10.334;2022-11-25T10:45:20;50.60;;;32.65;;
45392;SDS011;31129;44.810;10.334;2022-11-25T10:51:00;50.40;;;34.67;;
45392;SDS011;31129;44.810;10.334;2022-11-25T10:53:33;46.17;;;34.45;;
45392;SDS011;31129;44.810;10.334;2022-11-25T10:58:38;52.58;;;35.92;;
45392;SDS011;31129;44.810;10.334;2022-11-25T11:01:12;48.42;;;36.70;;
45392;SDS011;31129;44.810;10.334;2022-11-25T11:03:45;52.45;;;37.97;;
45392;SDS011;31129;44.810;10.334;2022-11-25T11:06:29;57.20;;;38.15;;
45392;SDS011;31129;44.810;10.334;2022-11-25T11:08:59;54.47;;;38.60;;
45392;SDS011;31129;44.810;10.334;2022-11-25T11:11:25;53.42;;;37.67;;
45392;SDS011;31129;44.810;10.334;2022-11-25T11:13:57;52.10;;;37.38;;
45392;SDS011;31129;44.810;10.334;2022-11-25T11:16:35;56.50;;;38.45;;
45392;SDS011;31129;44.810;10.334;2022-11-25T11:19:05;59.83;;;38.65;;
45392;SDS011;31129;44.810;10.334;2022-11-25T11:21:46;55.08;;;38.58;;
45392;SDS011;31129;44.810;10.334;2022-11-25T11:24:30;54.53;;;38.33;;
45392;SDS011;31129;44.810;10.334;2022-11-25T11:29:31;52.22;;;37.47;;
45392;SDS011;31129;44.810;10.334;2022-11-25T11:32:02;56.03;;;39.30;;
45392;SDS011;31129;44.810;10.334;2022-11-25T11:42:19;60.00;;;40.30;;
45392;SDS011;31129;44.810;10.334;2022-11-25T11:58:12;64.57;;;44.50;;
45392;SDS011;31129;44.810;10.334;2022-11-25T12:01:04;65.30;;;44.90;;
45392;SDS011;31129;44.810;10.334;2022-11-25T12:03:39;61.03;;;43.40;;
45392;SDS011;31129;44.810;10.334;2022-11-25T12:06:12;65.43;;;44.85;;
45392;SDS011;31129;44.810;10.334;2022-11-25T12:11:15;65.18;;;43.55;;
45392;SDS011;31129;44.810;10.334;2022-11-25T12:13:50;62.90;;;45.38;;
45392;SDS011;31129;44.810;10.334;2022-11-25T12:18:59;63.92;;;44.58;;
45392;SDS011;31129;44.810;10.334;2022-11-25T12:21:42;60.53;;;44.58;;
45392;SDS011;31129;44.810;10.334;2022-11-25T12:29:30;63.78;;;43.75;;
45392;SDS011;31129;44.810;10.334;2022-11-25T12:32:44;63.50;;;43.17;;
45392;SDS011;31129;44.810;10.334;2022-11-25T12:43:22;75.80;;;50.13;;
45392;SDS011;31129;44.810;10.334;2022-11-25T12:48:47;72.22;;;52.20;;
45392;SDS011;31129;44.810;10.334;2022-11-25T13:02:03;77.30;;;53.20;;
45392;SDS011;31129;44.810;10.334;2022-11-25T13:10:16;87.35;;;57.63;;
45392;SDS011;31129;44.810;10.334;2022-11-25T13:15:45;81.00;;;56.63;;
45392;SDS011;31129;44.810;10.334;2022-11-25T13:18:17;84.13;;;55.75;;
45392;SDS011;31129;44.810;10.334;2022-11-25T13:20:47;86.53;;;56.88;;
45392;SDS011;31129;44.810;10.334;2022-11-25T13:25:48;86.13;;;57.42;;
45392;SDS011;31129;44.810;10.334;2022-11-25T13:36:47;81.57;;;54.30;;
45392;SDS011;31129;44.810;10.334;2022-11-25T13:39:15;84.35;;;55.78;;
45392;SDS011;31129;44.810;10.334;2022-11-25T13:41:45;81.72;;;56.70;;
45392;SDS011;31129;44.810;10.334;2022-11-25T13:44:17;82.47;;;55.30;;
45392;SDS011;31129;44.810;10.334;2022-11-25T13:46:51;87.32;;;56.45;;
45392;SDS011;31129;44.810;10.334;2022-11-25T13:49:22;84.18;;;53.92;;
45392;SDS011;31129;44.810;10.334;2022-11-25T13:51:54;83.93;;;54.58;;
45392;SDS011;31129;44.810;10.334;2022-11-25T13:54:25;83.88;;;55.17;;
45392;SDS011;31129;44.810;10.334;2022-11-25T13:57:00;77.47;;;53.53;;
45392;SDS011;31129;44.810;10.334;2022-11-25T14:05:07;78.32;;;50.92;;
45392;SDS011;31129;44.810;10.334;2022-11-25T14:21:41;74.05;;;50.28;;
45392;SDS011;31129;44.810;10.334;2022-11-25T14:24:50;78.60;;;49.42;;
45392;SDS011;31129;44.810;10.334;2022-11-25T14:30:05;77.93;;;49.70;;
45392;SDS011;31129;44.810;10.334;2022-11-25T14:35:15;79.18;;;50.53;;
45392;SDS011;31129;44.810;10.334;2022-11-25T14:37:49;71.32;;;48.13;;
45392;SDS011;31129;44.810;10.334;2022-11-25T14:40:22;76.65;;;50.05;;
45392;SDS011;31129;44.810;10.334;2022-11-25T14:42:58;79.63;;;51.10;;
45392;SDS011;31129;44.810;10.334;2022-11-25T14:45:30;84.65;;;52.83;;
45392;SDS011;31129;44.810;10.334;2022-11-25T14:47:58;80.40;;;50.15;;
45392;SDS011;31129;44.810;10.334;2022-11-25T14:50:37;77.40;;;51.63;;
45392;SDS011;31129;44.810;10.334;2022-11-25T14:53:07;80.30;;;51.70;;
45392;SDS011;31129;44.810;10.334;2022-11-25T14:55:34;71.47;;;49.88;;
45392;SDS011;31129;44.810;10.334;2022-11-25T14:58:00;80.30;;;52.42;;
45392;SDS011;31129;44.810;10.334;2022-11-25T15:00:26;79.75;;;50.63;;
45392;SDS011;31129;44.810;10.334;2022-11-25T15:02:56;79.72;;;53.40;;
45392;SDS011;31129;44.810;10.334;2022-11-25T15:05:25;81.70;;;54.97;;
45392;SDS011;31129;44.810;10.334;2022-11-25T15:08:03;77.45;;;52.13;;
45392;SDS011;31129;44.810;10.334;2022-11-25T15:13:05;82.30;;;53.88;;
45392;SDS011;31129;44.810;10.334;2022-11-25T15:15:36;74.80;;;52.03;;
45392;SDS011;31129;44.810;10.334;2022-11-25T15:18:05;86.07;;;54.72;;
45392;SDS011;31129;44.810;10.334;2022-11-25T15:20:31;86.25;;;55.33;;
45392;SDS011;31129;44.810;10.334;2022-11-25T15:22:59;79.78;;;54.53;;
45392;SDS011;31129;44.810;10.334;2022-11-25T15:25:25;88.95;;;55.15;;
45392;SDS011;31129;44.810;10.334;2022-11-25T15:27:51;83.63;;;57.50;;
45392;SDS011;31129;44.810;10.334;2022-11-25T15:30:24;82.70;;;54.28;;
45392;SDS011;31129;44.810;10.334;2022-11-25T15:32:51;79.78;;;53.95;;
45392;SDS011;31129;44.810;10.334;2022-11-25T15:35:19;88.88;;;55.67;;
45392;SDS011;31129;44.810;10.334;2022-11-25T15:37:47;83.28;;;56.95;;
45392;SDS011;31129;44.810;10.334;2022-11-25T15:45:51;87.03;;;55.78;;
45392;SDS011;31129;44.810;10.334;2022-11-25T15:51:02;95.70;;;57.17;;
45392;SDS011;31129;44.810;10.334;2022-11-25T15:53:28;87.50;;;56.97;;
45392;SDS011;31129;44.810;10.334;2022-11-25T15:56:01;88.20;;;57.60;;
45392;SDS011;31129;44.810;10.334;2022-11-25T15:58:29;90.70;;;57.60;;
45392;SDS011;31129;44.810;10.334;2022-11-25T16:04:07;94.63;;;58.72;;
45392;SDS011;31129;44.810;10.334;2022-11-25T16:06:35;86.82;;;57.47;;
45392;SDS011;31129;44.810;10.334;2022-11-25T16:09:01;82.28;;;57.85;;
45392;SDS011;31129;44.810;10.334;2022-11-25T16:11:29;94.60;;;56.63;;
45392;SDS011;31129;44.810;10.334;2022-11-25T16:16:59;84.45;;;57.72;;
45392;SDS011;31129;44.810;10.334;2022-11-25T16:19:29;96.65;;;59.20;;
45392;SDS011;31129;44.810;10.334;2022-11-25T16:21:58;91.32;;;57.47;;
45392;SDS011;31129;44.810;10.334;2022-11-25T16:24:30;90.35;;;60.05;;
45392;SDS011;31129;44.810;10.334;2022-11-25T16:26:59;92.53;;;59.47;;
45392;SDS011;31129;44.810;10.334;2022-11-25T16:29:29;90.78;;;61.78;;
45392;SDS011;31129;44.810;10.334;2022-11-25T16:31:57;100.00;;;61.03;;
45392;SDS011;31129;44.810;10.334;2022-11-25T16:34:23;102.32;;;63.28;;
45392;SDS011;31129;44.810;10.334;2022-11-25T16:36:50;90.40;;;60.63;;
45392;SDS011;31129;44.810;10.334;2022-11-25T16:39:16;95.82;;;60.55;;
45392;SDS011;31129;44.810;10.334;2022-11-25T16:41:41;90.38;;;60.13;;
45392;SDS011;31129;44.810;10.334;2022-11-25T16:46:40;93.68;;;58.83;;
45392;SDS011;31129;44.810;10.334;2022-11-25T16:49:07;92.72;;;60.85;;
45392;SDS011;31129;44.810;10.334;2022-11-25T16:51:37;99.38;;;62.30;;
45392;SDS011;31129;44.810;10.334;2022-11-25T16:54:03;97.75;;;61.28;;